Slip Opinions Available on FindLaw

[ Supreme | 1st | 2nd | 3rd | 4th | 5th | 6th ]

NO UPDATE CASE LAW FOR TODAY

CALIFORNIA SUPREME COURT

POSTED DATE CASE NAME - FILED DATE
Apr 30 2009 P. v. Gaines 4/30/09 SC S157008.PDF - S157008.DOC
Apr 30 2009 P. v. Lawrence 4/30/09 SC S160736.PDF - S160736.DOC
Apr 27 2009 P. v. Bonnetta 4/27/09 SC S159133.PDF - S159133.DOC
Apr 27 2009 Murphy v. Burch 4/27/09 SC S159489.PDF - S159489.DOC
Apr 23 2009 P. v. Stone 4/23/09 SC S162675.PDF - S162675.DOC
Apr 23 2009 Silverbrand v. County of L.A. 4/23/09 SC S143929.PDF - S143929.DOC
Apr 23 2009 P. v. Hawthorne 4/23/09 SC S064769.PDF - S064769.DOC
Apr 20 2009 Vargas v. City of Salinas 4/20/09 SC S140911.PDF - S140911.DOC
Apr 20 2009 Fairbanks v. Superior Ct. 4/20/09 SC S157001.PDF - S157001.DOC
Apr 09 2009 P. v. Story 4/9/09 SC S161044.PDF - S161044.DOC
Apr 06 2009 Conroy v. Regents Univ. of Cal. 4/6/09 SC S153002.PDF - S153002.DOC
Apr 06 2009 Mileikowsky v. West Hills Hosp. 4/6/09 SC S156986.PDF - S156986.DOC

FIRST APPELLATE DISTRICT

POSTED DATE CASE NAME - FILED DATE
Apr 28 2009 Burns v. Neiman Marcus Group 4/28/09 CA1/3 A120378.PDF - A120378.DOC
Apr 27 2009 In re Edward S. 4/27/09 CA1/2 A118547A.PDF - A118547A.DOC
Apr 24 2009 Co. of Sonoma v. Super. Ct. 4/24/09 CA1/5 A122450.PDF - A122450.DOC
Apr 22 2009 Fries v. Rite Aid 4/22/09 CA1/3 A120488.PDF - A120488.DOC
Apr 22 2009 Munoz v. City of Union City 4/22/09 CA1/2 A120987.PDF - A120987.DOC
Apr 20 2009 P. v. Bermudez 4/20/09 CA1/5 A119028M.PDF - A119028M.DOC
Apr 20 2009 P. v. Ary 4/20/09 CA1/2 A113020.PDF - A113020.DOC
Apr 17 2009 Abernathy Valley, Inc. v. Co. of Solano 4/17/09 CA1/5 A121817.PDF - A121817.DOC
Apr 17 2009 Koepnick v. Kashiwa Fudosan America, Inc. 4/17/09 CA1/5 A119316.PDF - A119316.DOC
Apr 15 2009 General Mills v. Franchise Tax Bd. 4/15/09 CA1/5 A120492.PDF - A120492.DOC
Apr 13 2009 P. v. Lewis 4/13/09 CA1/4 A120636.PDF - A120636.DOC
Apr 10 2009 Somers v. Super. Ct. 4/10/09 CA1/1 A123445.PDF - A123445.DOC
Apr 09 2009 P. v. Smith 4/9/09 CA1/5 A120331.PDF - A120331.DOC
Apr 09 2009 P. v. Dyke 4/9/09 CA1/4 A117955.PDF - A117955.DOC
Apr 08 2009 Internat. Assn. of Fire Fighters v. Public Employment Relations Bd. 4/8/09 CA1/3 A114959M.PDF - A114959M.DOC
Apr 02 2009 Marr. of Dellaria 4/2/09 CA1/4 A122162M.PDF - A122162M.DOC
Apr 02 2009 P. v. Dawson 4/2/09 CA1/2 A120628.PDF - A120628.DOC

SECOND APPELLATE DISTRICT

POSTED DATE CASE NAME - FILED DATE
Apr 30 2009 Bontempo v. WCAB 4/30/09 CA2/4 B207660.PDF - B207660.DOC
Apr 30 2009 Johnson v. United Cerebral Palsy Foundation 4/30/09 CA2/3 B198888A.PDF - B198888A.DOC
Apr 30 2009 Lockwood v. Sheppard, Mullin etc. 4/30/09 CA2/4 B204688.PDF - B204688.DOC
Apr 30 2009 Safeco Ins. v. Super. Ct. 4/30/09 CA2/3 B213044.PDF - B213044.DOC
Apr 30 2009 Flores v. Axxis Network etc. 4/8/09 CA2/1 B207453.PDF - B207453.DOC
Apr 29 2009 Neman v. Commercial Capital Bank 4/29/09 CA2/5 B208164.PDF - B208164.DOC
Apr 28 2009 In re L.B. 4/28/09 CA2/5 B210574.PDF - B210574.DOC
Apr 28 2009 SP Star Enterprises v. City of Los Angeles 4/28/09 CA2/3 B204045.PDF - B204045.DOC
Apr 28 2009 County of Los Angeles v. Fairmont Specialty 4/28/09 CA2/5 B202469.PDF - B202469.DOC
Apr 28 2009 P. v. Zanoletti 4/28/09 CA2/2 B199682A.PDF - B199682A.DOC
Apr 27 2009 Olvera v. El Pollo Loco 4/27/09 CA2/3 B205343.PDF - B205343.DOC
Apr 27 2009 Sakaguchi v. Sakaguchi 4/27/09 CA2/4 B208353.PDF - B208353.DOC
Apr 27 2009 Iglesia Evangelica etc. v. So. Pac. Latin Amer. Dist. 4/27/09 CA2/7 B203800.PDF - B203800.DOC
Apr 24 2009 Cohen v. Brown 4/24/09 CA2/3 B206223A.PDF - B206223A.DOC
Apr 24 2009 Estate of Earley 4/24/09 CA2/1 B209782.PDF - B209782.DOC
Apr 24 2009 P. v. Ponce CA2/6 3/25/09 B209918.PDF - B209918.DOC
Apr 22 2009 Goldman v. KPMG 4/22/09 CA2/8 B195740.PDF - B195740.DOC
Apr 22 2009 San Bernardino Valley Water v. Local Agency Formation 3/23/09 CA2/6 B208974.PDF - B208974.DOC
Apr 21 2009 County of Los Angeles v. Fairmont Specialty CA2/4 B204778.PDF - B204778.DOC
Apr 17 2009 Apartment Assn. of LA Co., Inc. v. City of LA 4/17/09 CA2/3 B204334.PDF - B204334.DOC
Apr 16 2009 Watkins v. Wachovia Corp. 4/16/09 CA2/3 B199982.PDF - B199982.DOC
Apr 16 2009 P. v. Samaniego 4/16/09 CA2/2 B205512M.PDF - B205512M.DOC
Apr 16 2009 Mintz v. Blue Cross 4/16/09 CA2/8 B207405.PDF - B207405.DOC
Apr 16 2009 P. v. Felix 4/16/09 CA2/8 B204858.PDF - B204858.DOC
Apr 16 2009 World Financial v. HBW Ins. etc. 4/16/09 CA2/6 B210884.PDF - B210884.DOC
Apr 16 2009 Franke v. BAM Building 4/16/09 CA2/6 B204830M.PDF - B204830M.DOC
Apr 15 2009 Daily Journal v. County of LA 4/15/09 CA2/8 B204630.PDF - B204630.DOC
Apr 13 2009 In re C.C. 4/13/09 CA2/7 B208675.PDF - B208675.DOC
Apr 13 2009 Roman v. Superior Court 4/13/09 CA2/7 B209855.PDF - B209855.DOC
Apr 13 2009 Vidrio v. Hernandez 4/13/09 CA2/7 B207391.PDF - B207391.DOC
Apr 13 2009 Tarkington v. Cal. Unemp. Ins. Appeals Bd. 3/12/09 CA2/1 B203965.PDF - B203965.DOC
Apr 10 2009 Venturi & Co. v. Pacific Malibu Dev. 4/10/09 CA2/8 B205789.PDF - B205789.DOC
Apr 08 2009 McMahon v. City of LA 4/8/09 CA2/5 B206254.PDF - B206254.DOC
Apr 08 2009 Birl v. Heritage Care 3/11/09 CA2/2 B206952.PDF - B206952.DOC
Apr 08 2009 Linthicum v. Butterfield 4/8/09 CA2/6 B199645M.PDF - B199645M.DOC
Apr 08 2009 P. v. Burns 4/8/09 CA2/4 B205324.PDF - B205324.DOC
Apr 07 2009 P. v. Valenzuela 4/7/09 CA2/5 B209837.PDF - B209837.DOC
Apr 07 2009 K.J. v. Arcadia Unified School Dist. 4/7/09 CA2/3 B209843.PDF - B209843.DOC
Apr 06 2009 P. v. Samaniego 4/6/09 CA2/3 B205512.PDF - B205512.DOC
Apr 06 2009 A.N. v. County of L.A. 4/6/09 CA2/8 B204345M.PDF - B204345M.DOC
Apr 02 2009 Linthicum v. Butterfield 4/2/09 CA2/6 B199645.PDF - B199645.DOC
Apr 02 2009 In re Masoner 4/2/09 CA2/3 B205410.PDF - B205410.DOC
Apr 01 2009 Long Beach Mem. Med. Ctr. v. Super. Ct. 4/1/09 CA2/3 B210470M.PDF - B210470M.DOC
Apr 01 2009 Bradley v. Gilbert 4/1/09 CA2/7 B201357.PDF - B201357.DOC

THIRD APPELLATE DISTRICT

POSTED DATE CASE NAME - FILED DATE
Apr 30 2009 In re T.C. 4/30/09 CA3 C058834.PDF - C058834.DOC
Apr 29 2009 In re Ashlie M. 4/29/09 CA3 C058513.PDF - C058513.DOC
Apr 29 2009 P. v. Frazier 4/29/09 CA3 C057684.PDF - C057684.DOC
Apr 29 2009 P. v. Henning 4/29/09 CA3 C058105.PDF - C058105.DOC
Apr 29 2009 P. v. Watts 4/29/08 CA3 C056491.PDF - C056491.DOC
Apr 22 2009 Teselle v. McLoughlin 4/22/09 CA3 C054919.PDF - C054919.DOC
Apr 20 2009 Estate of Prindle 4/20/09 CA3 C055832.PDF - C055832.DOC
Apr 20 2009 P. v. Branner 4/20/09 CA3 C059288.PDF - C059288.DOC
Apr 14 2009 In re Jeremiah G. 4/14/09 CA3 C058223.PDF - C058223.DOC
Apr 10 2009 K.J. v. Roman Catholic Archbishop etc. 4/10/09 CA3 C058034.PDF - C058034.DOC
Apr 08 2009 In re Holly B. 4/8/09 CA3 C058116.PDF - C058116.DOC
Apr 01 2009 Kelly v. Human Rights Campaign 4/1/09 CA3 C058941.PDF - C058941.DOC

FOURTH APPELLATE DISTRICT

POSTED DATE CASE NAME - FILED DATE
Apr 30 2009 In re Nunez 4/30/09 CA4/3 G040377.PDF - G040377.DOC
Apr 30 2009 Applera v. MP Biomedicals 4/30/09 CA4/3 G038984.PDF - G038984.DOC
Apr 28 2009 State Build. & Const. Trades Council v. City of Vista 4/28/09 CA4/1 D052181.PDF - D052181.DOC
Apr 28 2009 P. v. Magallanes 4/28/09 CA4/3 G040133.PDF - G040133.DOC
Apr 28 2009 Gomez v. Lincare 4/3/09 CA4/3 G040338.PDF - G040338.DOC
Apr 24 2009 P. v. Waldie 4/10/09 CA4/2 E042303.PDF - E042303.DOC
Apr 23 2009 Lopez v. Super. Ct. 4/23/09 CA4/3 G040679.PDF - G040679.DOC
Apr 23 2009 P. v. Coon 4/23/09 CA4/1 D052722.PDF - D052722.DOC
Apr 17 2009 Century 21 Chamberlain & Assoc. v. Haberman 4/17/09 CA4/3 G040202.PDF - G040202.DOC
Apr 15 2009 Alan S. v. Super. Ct. 4/15/09 CA4/3 G041034N.PDF - G041034N.DOC
Apr 14 2009 Mega Life etc. v. Super. Ct. 4/14/09 CA4/2 E045969.PDF - E045969.DOC
Apr 09 2009 Greenberg v. Super. Ct. 4/9/09 CA4/3 G040605.PDF - G040605.DOC
Apr 08 2009 P. v. Pearl 4/8/09 CA4/3 G041316.PDF - G041316.DOC
Apr 08 2009 P. v. O’Shell 4/8/09 CA4/1 D052192.PDF - D052192.DOC
Apr 08 2009 R.S. v. Super Ct. 3/3/09 CA4/3 G040473A.PDF - G040473A.DOC
Apr 08 2009 In re R.W. 3/26/09 CA4/3 G040791.PDF - G040791.DOC
Apr 07 2009 Marr. of Corona 4/7/09 CA4/1 D052502.PDF - D052502.DOC
Apr 03 2009 Phillips v. TLC Plumbing, Inc. 4/3/09 CA4/1 D053072.PDF - D053072.DOC
Apr 02 2009 Alan S. v. Super. Ct. 4/2/09 CA4/3 G041034M.PDF - G041034M.DOC

FIFTH APPELLATE DISTRICT

POSTED DATE CASE NAME - FILED DATE
Apr 30 2009 Moreno v. Hanford Sentinel 4/30/09 CA5 F054138M.PDF - F054138M.DOC
Apr 30 2009 Sparks v. Kern County etc. 4/29/09 CA5 F055455.PDF - F055455.DOC
Apr 23 2009 Marr. of Hopkins 4/23/09 CA5 F055130.PDF - F055130.DOC
Apr 02 2009 Moreno v. Hanford Sentinel 4/2/09 CA5 F054138.PDF - F054138.DOC

SIXTH APPELLATE DISTRICT

POSTED DATE CASE NAME - FILED DATE
Apr 29 2009 In re K.F. 4/29/09 CA6 H032977.PDF - H032977.DOC
Apr 23 2009 Barron v. Super. Ct. 3/26/09 CA6 H032853.PDF - H032853.DOC
Apr 23 2009 In re Dannenberg 1/23/09 CA6 H030031A.PDF - H030031A.DOC
Apr 17 2009 In re Criscione 4/17/09 CA6 H032680.PDF - H032680.DOC
Apr 07 2009 In re Lazor 4/7/09 CA6 H032842.PDF - H032842.DOC

FindLaw Career Center

    Search for Law Jobs:

      Post a Job  |  View More Jobs
Ads by FindLaw